sensor_id;sensor_type;location;lat;lon;timestamp;pressure;altitude;pressure_sealevel;temperature;humidity
76054;BME280;64752;48.870;9.082;2022-12-26T00:00:55;98073.03;;;11.58;69.86
76054;BME280;64752;48.870;9.082;2022-12-26T00:03:20;98072.25;;;11.56;70.12
76054;BME280;64752;48.870;9.082;2022-12-26T00:05:46;98086.28;;;11.52;70.24
76054;BME280;64752;48.870;9.082;2022-12-26T00:08:11;98074.91;;;11.55;70.48
76054;BME280;64752;48.870;9.082;2022-12-26T00:10:38;98087.91;;;11.55;70.73
76054;BME280;64752;48.870;9.082;2022-12-26T00:13:03;98095.63;;;11.56;70.37
76054;BME280;64752;48.870;9.082;2022-12-26T00:15:28;98099.16;;;11.54;70.44
76054;BME280;64752;48.870;9.082;2022-12-26T00:17:54;98096.56;;;11.54;70.47
76054;BME280;64752;48.870;9.082;2022-12-26T00:20:19;98093.09;;;11.55;70.45
76054;BME280;64752;48.870;9.082;2022-12-26T00:22:45;98089.66;;;11.54;70.47
76054;BME280;64752;48.870;9.082;2022-12-26T00:25:10;98094.06;;;11.52;70.67
76054;BME280;64752;48.870;9.082;2022-12-26T00:27:35;98079.31;;;11.53;70.65
76054;BME280;64752;48.870;9.082;2022-12-26T00:30:01;98090.66;;;11.50;70.83
76054;BME280;64752;48.870;9.082;2022-12-26T00:32:27;98098.53;;;11.49;70.96
76054;BME280;64752;48.870;9.082;2022-12-26T00:34:52;98094.31;;;11.45;71.30
76054;BME280;64752;48.870;9.082;2022-12-26T00:37:17;98098.03;;;11.37;71.30
76054;BME280;64752;48.870;9.082;2022-12-26T00:39:43;98101.84;;;11.29;71.65
76054;BME280;64752;48.870;9.082;2022-12-26T00:42:08;98096.06;;;11.21;72.59
76054;BME280;64752;48.870;9.082;2022-12-26T00:44:33;98099.91;;;11.10;72.90
76054;BME280;64752;48.870;9.082;2022-12-26T00:46:59;98091.25;;;11.10;72.66
76054;BME280;64752;48.870;9.082;2022-12-26T00:49:24;98088.16;;;11.00;73.45
76054;BME280;64752;48.870;9.082;2022-12-26T00:51:49;98084.47;;;10.82;74.02
76054;BME280;64752;48.870;9.082;2022-12-26T00:54:15;98103.72;;;10.75;74.30
76054;BME280;64752;48.870;9.082;2022-12-26T00:56:40;98106.44;;;10.72;74.88
76054;BME280;64752;48.870;9.082;2022-12-26T00:59:05;98106.28;;;10.76;74.54
76054;BME280;64752;48.870;9.082;2022-12-26T01:01:31;98100.03;;;10.82;73.76
76054;BME280;64752;48.870;9.082;2022-12-26T01:03:57;98096.31;;;10.89;73.48
76054;BME280;64752;48.870;9.082;2022-12-26T01:06:22;98092.47;;;11.01;72.80
76054;BME280;64752;48.870;9.082;2022-12-26T01:08:49;98091.13;;;10.89;73.56
76054;BME280;64752;48.870;9.082;2022-12-26T01:11:15;98091.53;;;10.77;73.72
76054;BME280;64752;48.870;9.082;2022-12-26T01:14:02;98098.81;;;10.67;74.40
76054;BME280;64752;48.870;9.082;2022-12-26T01:16:28;98100.13;;;10.54;74.76
76054;BME280;64752;48.870;9.082;2022-12-26T01:18:53;98094.72;;;10.60;74.37
76054;BME280;64752;48.870;9.082;2022-12-26T01:21:19;98090.59;;;10.54;74.97
76054;BME280;64752;48.870;9.082;2022-12-26T01:23:44;98085.31;;;10.57;74.81
76054;BME280;64752;48.870;9.082;2022-12-26T01:26:09;98084.53;;;10.55;74.41
76054;BME280;64752;48.870;9.082;2022-12-26T01:28:34;98089.44;;;10.36;75.74
76054;BME280;64752;48.870;9.082;2022-12-26T01:31:02;98088.00;;;10.28;75.60
76054;BME280;64752;48.870;9.082;2022-12-26T01:33:27;98087.28;;;10.22;76.35
76054;BME280;64752;48.870;9.082;2022-12-26T01:35:52;98080.56;;;10.17;76.24
76054;BME280;64752;48.870;9.082;2022-12-26T01:38:19;98086.44;;;9.95;77.16
76054;BME280;64752;48.870;9.082;2022-12-26T01:40:44;98092.09;;;9.80;77.82
76054;BME280;64752;48.870;9.082;2022-12-26T01:43:11;98098.81;;;9.86;77.56
76054;BME280;64752;48.870;9.082;2022-12-26T01:45:37;98097.25;;;10.08;77.11
76054;BME280;64752;48.870;9.082;2022-12-26T01:48:03;98093.34;;;10.21;75.92
76054;BME280;64752;48.870;9.082;2022-12-26T01:50:40;98096.69;;;10.25;76.26
76054;BME280;64752;48.870;9.082;2022-12-26T01:53:13;98103.56;;;10.28;75.88
76054;BME280;64752;48.870;9.082;2022-12-26T01:55:41;98097.66;;;10.22;75.86
76054;BME280;64752;48.870;9.082;2022-12-26T01:58:12;98103.19;;;10.12;76.84
76054;BME280;64752;48.870;9.082;2022-12-26T02:00:40;98100.94;;;10.01;77.31
76054;BME280;64752;48.870;9.082;2022-12-26T02:03:06;98100.75;;;9.79;77.81
76054;BME280;64752;48.870;9.082;2022-12-26T02:05:54;98108.03;;;9.66;79.11
76054;BME280;64752;48.870;9.082;2022-12-26T02:08:25;98106.84;;;9.78;78.62
76054;BME280;64752;48.870;9.082;2022-12-26T02:10:54;98106.78;;;10.08;76.99
76054;BME280;64752;48.870;9.082;2022-12-26T02:13:21;98089.06;;;10.22;76.12
76054;BME280;64752;48.870;9.082;2022-12-26T02:15:47;98101.94;;;10.23;75.99
76054;BME280;64752;48.870;9.082;2022-12-26T02:18:13;98093.97;;;10.31;75.66
76054;BME280;64752;48.870;9.082;2022-12-26T02:21:01;98095.63;;;10.32;75.91
76054;BME280;64752;48.870;9.082;2022-12-26T02:23:49;98093.09;;;10.29;76.03
76054;BME280;64752;48.870;9.082;2022-12-26T02:32:33;98090.41;;;10.60;74.80
76054;BME280;64752;48.870;9.082;2022-12-26T02:43:37;98114.44;;;10.91;73.44
76054;BME280;64752;48.870;9.082;2022-12-26T02:46:19;98106.75;;;10.88;73.58
76054;BME280;64752;48.870;9.082;2022-12-26T02:52:04;98113.66;;;10.62;74.87
76054;BME280;64752;48.870;9.082;2022-12-26T02:55:06;98108.13;;;10.48;75.76
76054;BME280;64752;48.870;9.082;2022-12-26T02:58:18;98120.63;;;10.35;76.16
76054;BME280;64752;48.870;9.082;2022-12-26T03:01:11;98124.41;;;10.23;76.49
76054;BME280;64752;48.870;9.082;2022-12-26T03:04:00;98124.66;;;10.15;76.91
76054;BME280;64752;48.870;9.082;2022-12-26T03:06:53;98131.88;;;10.06;76.87
76054;BME280;64752;48.870;9.082;2022-12-26T03:09:38;98125.47;;;9.89;78.24
76054;BME280;64752;48.870;9.082;2022-12-26T03:12:39;98116.19;;;9.82;77.96
76054;BME280;64752;48.870;9.082;2022-12-26T03:15:28;98108.50;;;9.79;78.02
76054;BME280;64752;48.870;9.082;2022-12-26T03:18:17;98107.75;;;9.75;78.02
76054;BME280;64752;48.870;9.082;2022-12-26T03:20:43;98111.84;;;9.82;77.92
76054;BME280;64752;48.870;9.082;2022-12-26T03:23:12;98109.13;;;9.87;77.80
76054;BME280;64752;48.870;9.082;2022-12-26T03:25:51;98101.22;;;9.92;77.55
76054;BME280;64752;48.870;9.082;2022-12-26T03:28:37;98091.53;;;9.98;77.07
76054;BME280;64752;48.870;9.082;2022-12-26T03:31:06;98085.59;;;9.95;77.28
76054;BME280;64752;48.870;9.082;2022-12-26T03:33:39;98085.81;;;9.87;77.88
76054;BME280;64752;48.870;9.082;2022-12-26T03:37:00;98094.47;;;9.86;77.76
76054;BME280;64752;48.870;9.082;2022-12-26T03:45:51;98078.59;;;10.23;76.37
76054;BME280;64752;48.870;9.082;2022-12-26T03:52:06;98082.50;;;10.10;77.00
76054;BME280;64752;48.870;9.082;2022-12-26T03:57:42;98085.81;;;10.42;76.05
76054;BME280;64752;48.870;9.082;2022-12-26T04:00:30;98088.91;;;10.53;75.78
76054;BME280;64752;48.870;9.082;2022-12-26T04:03:15;98084.25;;;10.63;75.43
76054;BME280;64752;48.870;9.082;2022-12-26T04:06:04;98082.22;;;10.71;75.18
76054;BME280;64752;48.870;9.082;2022-12-26T04:09:03;98096.63;;;10.80;74.52
76054;BME280;64752;48.870;9.082;2022-12-26T04:11:48;98096.69;;;10.78;74.84
76054;BME280;64752;48.870;9.082;2022-12-26T04:14:40;98105.13;;;10.85;74.76
76054;BME280;64752;48.870;9.082;2022-12-26T04:18:06;98100.81;;;10.84;74.61
76054;BME280;64752;48.870;9.082;2022-12-26T04:24:19;98104.88;;;10.91;74.65
76054;BME280;64752;48.870;9.082;2022-12-26T04:27:07;98100.94;;;10.81;75.29
76054;BME280;64752;48.870;9.082;2022-12-26T04:29:54;98098.28;;;10.83;74.90
76054;BME280;64752;48.870;9.082;2022-12-26T04:32:42;98099.09;;;10.85;74.96
76054;BME280;64752;48.870;9.082;2022-12-26T04:35:36;98111.28;;;10.83;74.92
76054;BME280;64752;48.870;9.082;2022-12-26T04:38:26;98118.50;;;10.73;75.42
76054;BME280;64752;48.870;9.082;2022-12-26T04:41:13;98113.16;;;10.77;75.39
76054;BME280;64752;48.870;9.082;2022-12-26T04:44:01;98114.31;;;10.69;76.18
76054;BME280;64752;48.870;9.082;2022-12-26T04:46:44;98106.75;;;10.63;76.25
76054;BME280;64752;48.870;9.082;2022-12-26T04:49:13;98101.25;;;10.72;75.30
76054;BME280;64752;48.870;9.082;2022-12-26T04:51:59;98098.22;;;10.84;74.75
76054;BME280;64752;48.870;9.082;2022-12-26T04:54:26;98085.84;;;10.92;74.66
76054;BME280;64752;48.870;9.082;2022-12-26T04:56:52;98088.50;;;10.91;74.80
76054;BME280;64752;48.870;9.082;2022-12-26T04:59:18;98074.03;;;10.84;75.17
76054;BME280;64752;48.870;9.082;2022-12-26T05:01:43;98097.66;;;10.76;75.88
76054;BME280;64752;48.870;9.082;2022-12-26T05:04:27;98088.03;;;10.79;75.71
76054;BME280;64752;48.870;9.082;2022-12-26T05:07:20;98086.13;;;10.85;75.45
76054;BME280;64752;48.870;9.082;2022-12-26T05:10:07;98087.66;;;10.90;74.93
76054;BME280;64752;48.870;9.082;2022-12-26T05:12:35;98076.41;;;10.90;75.08
76054;BME280;64752;48.870;9.082;2022-12-26T05:15:00;98088.34;;;10.95;74.93
76054;BME280;64752;48.870;9.082;2022-12-26T05:17:26;98086.34;;;11.02;74.69
76054;BME280;64752;48.870;9.082;2022-12-26T05:20:11;98084.56;;;11.04;74.51
76054;BME280;64752;48.870;9.082;2022-12-26T05:22:56;98081.25;;;10.99;74.76
76054;BME280;64752;48.870;9.082;2022-12-26T05:25:42;98089.78;;;11.03;74.79
76054;BME280;64752;48.870;9.082;2022-12-26T05:28:26;98087.94;;;11.06;74.28
76054;BME280;64752;48.870;9.082;2022-12-26T05:31:16;98089.53;;;11.10;74.03
76054;BME280;64752;48.870;9.082;2022-12-26T05:33:42;98102.44;;;11.12;73.83
76054;BME280;64752;48.870;9.082;2022-12-26T05:36:31;98100.72;;;11.12;74.12
76054;BME280;64752;48.870;9.082;2022-12-26T05:38:57;98097.16;;;11.15;73.76
76054;BME280;64752;48.870;9.082;2022-12-26T05:41:23;98101.44;;;11.16;73.82
76054;BME280;64752;48.870;9.082;2022-12-26T05:43:49;98104.00;;;11.17;73.46
76054;BME280;64752;48.870;9.082;2022-12-26T05:46:14;98117.13;;;11.13;74.12
76054;BME280;64752;48.870;9.082;2022-12-26T05:48:40;98112.91;;;11.10;73.96
76054;BME280;64752;48.870;9.082;2022-12-26T05:51:05;98113.09;;;11.04;74.63
76054;BME280;64752;48.870;9.082;2022-12-26T05:53:31;98109.66;;;11.04;74.63
76054;BME280;64752;48.870;9.082;2022-12-26T05:56:04;98113.38;;;10.96;74.42
76054;BME280;64752;48.870;9.082;2022-12-26T05:58:31;98108.13;;;10.98;75.04
76054;BME280;64752;48.870;9.082;2022-12-26T06:01:07;98091.81;;;10.94;74.63
76054;BME280;64752;48.870;9.082;2022-12-26T06:03:33;98099.38;;;11.00;74.52
76054;BME280;64752;48.870;9.082;2022-12-26T06:05:59;98118.28;;;11.04;74.37
76054;BME280;64752;48.870;9.082;2022-12-26T06:08:25;98117.53;;;11.00;74.60
76054;BME280;64752;48.870;9.082;2022-12-26T06:10:50;98115.75;;;11.03;74.63
76054;BME280;64752;48.870;9.082;2022-12-26T06:13:15;98117.34;;;11.07;74.58
76054;BME280;64752;48.870;9.082;2022-12-26T06:15:40;98100.13;;;11.04;74.61
76054;BME280;64752;48.870;9.082;2022-12-26T06:18:06;98100.25;;;11.01;74.87
76054;BME280;64752;48.870;9.082;2022-12-26T06:20:31;98099.19;;;11.07;74.46
76054;BME280;64752;48.870;9.082;2022-12-26T06:22:57;98100.13;;;11.04;74.38
76054;BME280;64752;48.870;9.082;2022-12-26T06:25:22;98105.44;;;11.01;74.75
76054;BME280;64752;48.870;9.082;2022-12-26T06:27:47;98101.78;;;11.07;75.14
76054;BME280;64752;48.870;9.082;2022-12-26T06:30:12;98104.63;;;10.99;75.10
76054;BME280;64752;48.870;9.082;2022-12-26T06:32:38;98107.16;;;11.00;75.03
76054;BME280;64752;48.870;9.082;2022-12-26T06:35:03;98104.53;;;11.02;74.88
76054;BME280;64752;48.870;9.082;2022-12-26T06:37:29;98110.44;;;11.06;74.43
76054;BME280;64752;48.870;9.082;2022-12-26T06:39:55;98097.53;;;11.04;74.42
76054;BME280;64752;48.870;9.082;2022-12-26T06:42:20;98096.63;;;11.05;74.74
76054;BME280;64752;48.870;9.082;2022-12-26T06:44:45;98102.66;;;11.06;74.77
76054;BME280;64752;48.870;9.082;2022-12-26T06:47:11;98097.53;;;11.04;74.57
76054;BME280;64752;48.870;9.082;2022-12-26T06:49:36;98103.63;;;11.03;74.93
76054;BME280;64752;48.870;9.082;2022-12-26T06:52:01;98106.31;;;11.00;75.15
76054;BME280;64752;48.870;9.082;2022-12-26T06:54:27;98107.38;;;10.94;75.59
76054;BME280;64752;48.870;9.082;2022-12-26T06:56:52;98122.22;;;10.91;75.51
76054;BME280;64752;48.870;9.082;2022-12-26T06:59:17;98121.41;;;10.89;75.22
76054;BME280;64752;48.870;9.082;2022-12-26T07:01:42;98122.16;;;10.92;75.36
76054;BME280;64752;48.870;9.082;2022-12-26T07:04:08;98119.25;;;11.02;74.94
76054;BME280;64752;48.870;9.082;2022-12-26T07:06:37;98125.56;;;10.94;75.75
76054;BME280;64752;48.870;9.082;2022-12-26T07:09:06;98134.13;;;10.96;75.84
76054;BME280;64752;48.870;9.082;2022-12-26T07:11:35;98125.44;;;10.97;75.63
76054;BME280;64752;48.870;9.082;2022-12-26T07:14:01;98133.38;;;10.93;76.03
76054;BME280;64752;48.870;9.082;2022-12-26T07:16:27;98119.19;;;11.03;75.05
76054;BME280;64752;48.870;9.082;2022-12-26T07:18:54;98119.63;;;10.91;75.73
76054;BME280;64752;48.870;9.082;2022-12-26T07:21:20;98111.75;;;10.94;75.70
76054;BME280;64752;48.870;9.082;2022-12-26T07:23:46;98114.34;;;10.94;76.17
76054;BME280;64752;48.870;9.082;2022-12-26T07:26:12;98124.72;;;10.94;75.66
76054;BME280;64752;48.870;9.082;2022-12-26T07:28:37;98133.88;;;10.79;77.01
76054;BME280;64752;48.870;9.082;2022-12-26T07:31:03;98138.44;;;10.71;77.92
76054;BME280;64752;48.870;9.082;2022-12-26T07:33:29;98126.50;;;10.67;78.28
76054;BME280;64752;48.870;9.082;2022-12-26T07:36:04;98127.28;;;10.69;77.55
76054;BME280;64752;48.870;9.082;2022-12-26T07:38:33;98128.34;;;10.63;78.52
76054;BME280;64752;48.870;9.082;2022-12-26T07:40:59;98120.47;;;10.66;78.69
76054;BME280;64752;48.870;9.082;2022-12-26T07:43:45;98127.44;;;10.64;78.98
76054;BME280;64752;48.870;9.082;2022-12-26T07:46:10;98141.69;;;10.77;76.98
76054;BME280;64752;48.870;9.082;2022-12-26T07:48:35;98143.69;;;10.69;77.62
76054;BME280;64752;48.870;9.082;2022-12-26T07:51:01;98137.34;;;10.78;77.14
76054;BME280;64752;48.870;9.082;2022-12-26T07:53:29;98135.19;;;10.91;76.48
76054;BME280;64752;48.870;9.082;2022-12-26T07:55:58;98141.44;;;10.85;77.24
76054;BME280;64752;48.870;9.082;2022-12-26T07:58:23;98147.59;;;10.83;77.40
76054;BME280;64752;48.870;9.082;2022-12-26T08:00:48;98142.22;;;10.87;77.06
76054;BME280;64752;48.870;9.082;2022-12-26T08:03:13;98146.66;;;10.84;77.58
76054;BME280;64752;48.870;9.082;2022-12-26T08:05:39;98135.72;;;10.75;77.85
76054;BME280;64752;48.870;9.082;2022-12-26T08:08:04;98142.81;;;10.70;78.38
76054;BME280;64752;48.870;9.082;2022-12-26T08:10:32;98149.31;;;10.82;78.59
76054;BME280;64752;48.870;9.082;2022-12-26T08:13:01;98149.44;;;10.79;78.15
76054;BME280;64752;48.870;9.082;2022-12-26T08:15:26;98158.97;;;10.77;78.36
76054;BME280;64752;48.870;9.082;2022-12-26T08:17:51;98152.53;;;10.64;78.78
76054;BME280;64752;48.870;9.082;2022-12-26T08:20:17;98165.31;;;10.70;78.19
76054;BME280;64752;48.870;9.082;2022-12-26T08:22:42;98152.56;;;10.62;78.74
76054;BME280;64752;48.870;9.082;2022-12-26T08:25:08;98149.16;;;10.87;78.04
76054;BME280;64752;48.870;9.082;2022-12-26T08:27:33;98154.09;;;10.94;76.66
76054;BME280;64752;48.870;9.082;2022-12-26T08:29:59;98169.13;;;10.85;77.76
76054;BME280;64752;48.870;9.082;2022-12-26T08:32:24;98179.28;;;10.91;77.13
76054;BME280;64752;48.870;9.082;2022-12-26T08:34:49;98188.25;;;10.80;77.55
76054;BME280;64752;48.870;9.082;2022-12-26T08:37:15;98197.34;;;10.67;78.75
76054;BME280;64752;48.870;9.082;2022-12-26T08:39:40;98199.63;;;10.51;79.11
76054;BME280;64752;48.870;9.082;2022-12-26T08:42:06;98205.47;;;10.56;79.50
76054;BME280;64752;48.870;9.082;2022-12-26T08:44:34;98212.47;;;10.54;79.61
76054;BME280;64752;48.870;9.082;2022-12-26T08:46:59;98233.13;;;10.57;80.06
76054;BME280;64752;48.870;9.082;2022-12-26T08:49:25;98231.59;;;10.50;80.97
76054;BME280;64752;48.870;9.082;2022-12-26T08:51:50;98251.22;;;10.29;82.68
76054;BME280;64752;48.870;9.082;2022-12-26T08:54:15;98261.00;;;10.19;83.68
76054;BME280;64752;48.870;9.082;2022-12-26T08:56:41;98273.44;;;10.08;85.35
76054;BME280;64752;48.870;9.082;2022-12-26T08:59:06;98272.97;;;9.94;86.13
76054;BME280;64752;48.870;9.082;2022-12-26T09:01:31;98270.75;;;9.81;87.59
76054;BME280;64752;48.870;9.082;2022-12-26T09:03:59;98272.72;;;9.72;87.78
76054;BME280;64752;48.870;9.082;2022-12-26T09:06:25;98279.50;;;9.76;88.36
76054;BME280;64752;48.870;9.082;2022-12-26T09:08:51;98278.69;;;9.74;89.29
76054;BME280;64752;48.870;9.082;2022-12-26T09:11:20;98266.63;;;9.74;89.69
76054;BME280;64752;48.870;9.082;2022-12-26T09:13:46;98274.22;;;9.80;89.38
76054;BME280;64752;48.870;9.082;2022-12-26T09:16:14;98280.34;;;9.78;89.19
76054;BME280;64752;48.870;9.082;2022-12-26T09:18:41;98289.72;;;9.82;89.02
76054;BME280;64752;48.870;9.082;2022-12-26T09:21:07;98282.19;;;9.73;89.90
76054;BME280;64752;48.870;9.082;2022-12-26T09:23:33;98294.34;;;9.71;90.53
76054;BME280;64752;48.870;9.082;2022-12-26T09:26:04;98299.59;;;9.68;90.02
76054;BME280;64752;48.870;9.082;2022-12-26T09:28:30;98298.09;;;9.59;89.87
76054;BME280;64752;48.870;9.082;2022-12-26T09:31:02;98304.28;;;9.53;91.24
76054;BME280;64752;48.870;9.082;2022-12-26T09:33:28;98299.16;;;9.50;91.36
76054;BME280;64752;48.870;9.082;2022-12-26T09:35:55;98309.47;;;9.53;91.99
76054;BME280;64752;48.870;9.082;2022-12-26T09:38:20;98307.88;;;9.48;93.05
76054;BME280;64752;48.870;9.082;2022-12-26T09:40:56;98320.75;;;9.51;92.61
76054;BME280;64752;48.870;9.082;2022-12-26T09:43:37;98339.28;;;9.68;92.71
76054;BME280;64752;48.870;9.082;2022-12-26T09:46:24;98342.25;;;9.54;92.70
76054;BME280;64752;48.870;9.082;2022-12-26T09:49:00;98342.31;;;9.51;92.75
76054;BME280;64752;48.870;9.082;2022-12-26T09:51:28;98333.59;;;9.54;93.17
76054;BME280;64752;48.870;9.082;2022-12-26T09:53:55;98328.63;;;9.79;92.28
76054;BME280;64752;48.870;9.082;2022-12-26T09:56:24;98334.41;;;9.89;91.65
76054;BME280;64752;48.870;9.082;2022-12-26T09:58:56;98342.81;;;9.98;91.23
76054;BME280;64752;48.870;9.082;2022-12-26T10:01:34;98346.19;;;10.00;91.12
76054;BME280;64752;48.870;9.082;2022-12-26T10:04:06;98346.97;;;10.04;90.26
76054;BME280;64752;48.870;9.082;2022-12-26T10:06:36;98361.56;;;10.07;89.88
76054;BME280;64752;48.870;9.082;2022-12-26T10:12:34;98325.97;;;10.13;88.38
76054;BME280;64752;48.870;9.082;2022-12-26T10:15:10;98316.34;;;10.18;88.36
76054;BME280;64752;48.870;9.082;2022-12-26T10:17:45;98326.75;;;10.17;88.01
76054;BME280;64752;48.870;9.082;2022-12-26T10:25:50;98330.22;;;10.16;89.66
76054;BME280;64752;48.870;9.082;2022-12-26T10:30:54;98336.06;;;10.24;89.10
76054;BME280;64752;48.870;9.082;2022-12-26T10:33:32;98329.88;;;10.28;89.05
76054;BME280;64752;48.870;9.082;2022-12-26T10:35:59;98330.81;;;10.26;89.24
76054;BME280;64752;48.870;9.082;2022-12-26T10:38:34;98320.31;;;10.30;88.78
76054;BME280;64752;48.870;9.082;2022-12-26T10:41:12;98344.59;;;10.28;88.69
76054;BME280;64752;48.870;9.082;2022-12-26T10:43:39;98346.38;;;10.26;88.75
76054;BME280;64752;48.870;9.082;2022-12-26T10:48:37;98346.56;;;10.18;88.88
76054;BME280;64752;48.870;9.082;2022-12-26T10:51:03;98348.31;;;10.17;88.40
76054;BME280;64752;48.870;9.082;2022-12-26T10:53:29;98359.59;;;10.16;88.58
76054;BME280;64752;48.870;9.082;2022-12-26T10:55:54;98365.69;;;10.14;89.44
76054;BME280;64752;48.870;9.082;2022-12-26T10:58:30;98370.00;;;10.15;89.53
76054;BME280;64752;48.870;9.082;2022-12-26T11:01:36;98362.22;;;10.15;88.87
76054;BME280;64752;48.870;9.082;2022-12-26T11:06:40;98335.59;;;10.10;89.54
76054;BME280;64752;48.870;9.082;2022-12-26T11:09:41;98339.06;;;10.09;89.85
76054;BME280;64752;48.870;9.082;2022-12-26T11:12:06;98340.88;;;10.05;90.12
76054;BME280;64752;48.870;9.082;2022-12-26T11:14:42;98332.28;;;10.03;90.88
76054;BME280;64752;48.870;9.082;2022-12-26T11:17:13;98329.66;;;10.04;89.96
76054;BME280;64752;48.870;9.082;2022-12-26T11:19:47;98301.25;;;10.01;90.55
76054;BME280;64752;48.870;9.082;2022-12-26T11:22:26;98307.47;;;9.94;90.97
76054;BME280;64752;48.870;9.082;2022-12-26T11:27:42;98285.13;;;9.92;90.95
76054;BME280;64752;48.870;9.082;2022-12-26T11:32:45;98301.16;;;10.04;90.53
76054;BME280;64752;48.870;9.082;2022-12-26T11:35:22;98323.63;;;10.06;89.77
76054;BME280;64752;48.870;9.082;2022-12-26T11:37:55;98320.06;;;10.08;89.14
76054;BME280;64752;48.870;9.082;2022-12-26T11:40:23;98314.84;;;10.10;89.54
76054;BME280;64752;48.870;9.082;2022-12-26T11:42:57;98319.28;;;10.06;89.47
76054;BME280;64752;48.870;9.082;2022-12-26T11:45:26;98334.63;;;10.12;89.68
76054;BME280;64752;48.870;9.082;2022-12-26T11:47:54;98335.31;;;10.19;89.29
76054;BME280;64752;48.870;9.082;2022-12-26T11:50:22;98310.13;;;10.24;88.50
76054;BME280;64752;48.870;9.082;2022-12-26T11:52:52;98295.41;;;10.25;88.65
76054;BME280;64752;48.870;9.082;2022-12-26T11:55:32;98310.88;;;10.28;88.01
76054;BME280;64752;48.870;9.082;2022-12-26T12:02:59;98300.31;;;10.35;86.37
76054;BME280;64752;48.870;9.082;2022-12-26T12:08:23;98282.59;;;10.51;84.88
76054;BME280;64752;48.870;9.082;2022-12-26T12:18:56;98310.00;;;10.87;83.49
76054;BME280;64752;48.870;9.082;2022-12-26T12:21:42;98305.75;;;10.84;82.87
76054;BME280;64752;48.870;9.082;2022-12-26T12:35:42;98311.03;;;10.53;83.55
76054;BME280;64752;48.870;9.082;2022-12-26T12:43:55;98299.75;;;10.55;83.81
76054;BME280;64752;48.870;9.082;2022-12-26T12:52:18;98287.00;;;10.48;84.01
76054;BME280;64752;48.870;9.082;2022-12-26T12:57:29;98289.50;;;10.51;83.75
76054;BME280;64752;48.870;9.082;2022-12-26T13:05:28;98284.41;;;10.48;83.78
76054;BME280;64752;48.870;9.082;2022-12-26T13:08:01;98286.94;;;10.49;83.42
76054;BME280;64752;48.870;9.082;2022-12-26T13:10:31;98294.91;;;10.43;84.21
76054;BME280;64752;48.870;9.082;2022-12-26T13:13:08;98291.59;;;10.38;84.33
76054;BME280;64752;48.870;9.082;2022-12-26T13:15:41;98290.56;;;10.44;83.74
76054;BME280;64752;48.870;9.082;2022-12-26T13:18:12;98290.59;;;10.42;83.70
76054;BME280;64752;48.870;9.082;2022-12-26T13:20:53;98289.88;;;10.38;84.40
76054;BME280;64752;48.870;9.082;2022-12-26T13:23:44;98273.22;;;10.46;83.82
76054;BME280;64752;48.870;9.082;2022-12-26T13:26:42;98258.38;;;10.51;83.47
76054;BME280;64752;48.870;9.082;2022-12-26T13:31:38;98271.22;;;10.55;83.63
76054;BME280;64752;48.870;9.082;2022-12-26T13:34:08;98265.03;;;10.59;83.17
76054;BME280;64752;48.870;9.082;2022-12-26T13:36:38;98273.53;;;10.65;83.19
76054;BME280;64752;48.870;9.082;2022-12-26T13:41:32;98280.25;;;10.70;82.42
76054;BME280;64752;48.870;9.082;2022-12-26T13:49:34;98260.16;;;10.77;82.33
76054;BME280;64752;48.870;9.082;2022-12-26T13:54:37;98275.91;;;10.71;82.44
76054;BME280;64752;48.870;9.082;2022-12-26T14:00:06;98269.03;;;10.70;82.21
76054;BME280;64752;48.870;9.082;2022-12-26T14:11:26;98258.50;;;10.74;82.13
76054;BME280;64752;48.870;9.082;2022-12-26T14:16:55;98264.63;;;10.73;82.14
76054;BME280;64752;48.870;9.082;2022-12-26T14:25:24;98265.00;;;10.61;83.10
76054;BME280;64752;48.870;9.082;2022-12-26T14:30:47;98258.88;;;10.62;82.33
76054;BME280;64752;48.870;9.082;2022-12-26T14:33:38;98262.63;;;10.53;82.92
76054;BME280;64752;48.870;9.082;2022-12-26T14:36:18;98265.22;;;10.53;83.14
76054;BME280;64752;48.870;9.082;2022-12-26T14:38:50;98263.69;;;10.48;83.41
76054;BME280;64752;48.870;9.082;2022-12-26T14:41:18;98266.91;;;10.54;83.43
76054;BME280;64752;48.870;9.082;2022-12-26T14:44:16;98264.31;;;10.54;83.24
76054;BME280;64752;48.870;9.082;2022-12-26T14:47:01;98272.94;;;10.55;82.99
76054;BME280;64752;48.870;9.082;2022-12-26T14:54:53;98254.94;;;10.50;83.20
76054;BME280;64752;48.870;9.082;2022-12-26T14:57:44;98261.13;;;10.46;82.97
76054;BME280;64752;48.870;9.082;2022-12-26T15:02:42;98237.88;;;10.43;83.79
76054;BME280;64752;48.870;9.082;2022-12-26T15:05:19;98241.50;;;10.37;84.05
76054;BME280;64752;48.870;9.082;2022-12-26T15:16:35;98255.97;;;10.15;85.04
76054;BME280;64752;48.870;9.082;2022-12-26T15:19:48;98244.59;;;10.20;84.72
76054;BME280;64752;48.870;9.082;2022-12-26T15:25:30;98247.25;;;10.17;85.14
76054;BME280;64752;48.870;9.082;2022-12-26T15:33:26;98265.31;;;10.20;85.36
76054;BME280;64752;48.870;9.082;2022-12-26T15:38:57;98268.75;;;10.21;85.34
76054;BME280;64752;48.870;9.082;2022-12-26T15:46:44;98264.59;;;10.15;85.42
76054;BME280;64752;48.870;9.082;2022-12-26T15:52:05;98255.19;;;10.13;85.31
76054;BME280;64752;48.870;9.082;2022-12-26T15:54:45;98267.38;;;10.09;85.68
76054;BME280;64752;48.870;9.082;2022-12-26T15:57:38;98257.81;;;10.11;85.71
76054;BME280;64752;48.870;9.082;2022-12-26T16:00:16;98250.84;;;10.13;85.45
76054;BME280;64752;48.870;9.082;2022-12-26T16:02:55;98269.00;;;10.12;85.53
76054;BME280;64752;48.870;9.082;2022-12-26T16:08:57;98255.38;;;10.05;85.59
76054;BME280;64752;48.870;9.082;2022-12-26T16:11:30;98268.44;;;10.02;85.70
76054;BME280;64752;48.870;9.082;2022-12-26T16:14:13;98273.50;;;10.05;85.91
76054;BME280;64752;48.870;9.082;2022-12-26T16:16:48;98271.38;;;9.90;87.00
76054;BME280;64752;48.870;9.082;2022-12-26T16:19:20;98275.78;;;9.86;86.84
76054;BME280;64752;48.870;9.082;2022-12-26T16:21:50;98272.25;;;9.89;86.58
76054;BME280;64752;48.870;9.082;2022-12-26T16:24:37;98277.38;;;9.90;86.33
76054;BME280;64752;48.870;9.082;2022-12-26T16:27:06;98283.44;;;9.91;86.12
76054;BME280;64752;48.870;9.082;2022-12-26T16:29:35;98285.09;;;9.93;86.10